Time;durP1;ratioP1;P1;durP2;ratioP2;P2;SDS_P1;SDS_P2;PMS_P1;PMS_P2;Temp;Humidity;BMP_temperature;BMP_pressure;BME280_temperature;BME280_humidity;BME280_pressure;Samples;Min_cycle;Max_cycle;Signal;HPM_P1;HPM_P2
2022/08/08 00:03:04;;;;;;;;;;;;;;;;;;12751959;27;20023;-74
2022/08/08 00:09:12;;;;;;;1.40;1.30;;;;;;;;;;12750467;27;19923;-74
2022/08/08 00:15:19;;;;;;;0.90;0.90;;;;;;;;;;12750421;27;20472;-74
2022/08/08 00:21:24;;;;;;;0.80;0.80;;;;;;;;;;12751285;27;20034;-73
2022/08/08 00:27:27;;;;;;;0.90;0.90;;;;;;;;;;12749548;27;20388;-74
2022/08/08 00:33:32;;;;;;;1.50;1.00;;;;;;;;;;12750617;27;20435;-74
2022/08/08 00:39:44;;;;;;;0.60;0.60;;;;;;;;;;12750243;27;20062;-74
2022/08/08 00:46:04;;;;;;;0.70;0.70;;;;;;;;;;12747628;27;20034;-74
2022/08/08 00:52:09;;;;;;;0.68;0.68;;;;;;;;;;12748414;27;20039;-73
2022/08/08 00:58:20;;;;;;;0.68;0.68;;;;;;;;;;12731308;27;20046;-74
2022/08/08 01:04:42;;;;;;;0.60;0.60;;;;;;;;;;12730572;27;20035;-74
2022/08/08 01:11:06;;;;;;;0.60;0.60;;;;;;;;;;12732161;27;20388;-74
2022/08/08 01:17:18;;;;;;;0.60;0.60;;;;;;;;;;12746430;27;20031;-75
2022/08/08 01:23:33;;;;;;;0.95;0.35;;;;;;;;;;12747312;27;20028;-74
2022/08/08 01:29:38;;;;;;;1.08;0.70;;;;;;;;;;12732541;27;20042;-74
2022/08/08 01:35:59;;;;;;;0.52;0.52;;;;;;;;;;12732454;27;20046;-73
2022/08/08 01:42:17;;;;;;;1.00;0.90;;;;;;;;;;12746271;27;20058;-73
2022/08/08 01:48:19;;;;;;;0.70;0.70;;;;;;;;;;12745586;27;20383;-73
2022/08/08 01:54:34;;;;;;;1.10;0.90;;;;;;;;;;12746855;27;20039;-74
2022/08/08 02:00:43;;;;;;;0.70;0.68;;;;;;;;;;12744991;27;20036;-74
2022/08/08 02:06:54;;;;;;;0.60;0.60;;;;;;;;;;12745872;27;20439;-74
2022/08/08 02:13:04;;;;;;;0.60;0.60;;;;;;;;;;12745462;27;20039;-74
2022/08/08 02:19:12;;;;;;;0.70;0.70;;;;;;;;;;12727986;27;20526;-74
2022/08/08 02:25:14;;;;;;;1.15;0.65;;;;;;;;;;12744023;27;20027;-74
2022/08/08 02:31:28;;;;;;;0.50;0.50;;;;;;;;;;12727739;27;20043;-74
2022/08/08 02:37:50;;;;;;;0.70;0.70;;;;;;;;;;12745485;27;20031;-73
2022/08/08 02:43:58;;;;;;;0.85;0.70;;;;;;;;;;12778534;27;20047;-73
2022/08/08 02:50:12;;;;;;;2.30;0.77;;;;;;;;;;12796261;27;20035;-73
2022/08/08 02:56:18;;;;;;;0.75;0.75;;;;;;;;;;12777559;27;20403;-73
2022/08/08 03:02:24;;;;;;;0.70;0.60;;;;;;;;;;12777390;27;20015;-73
2022/08/08 03:08:26;;;;;;;0.75;0.63;;;;;;;;;;12760614;27;20464;-74
2022/08/08 03:14:47;;;;;;;1.15;0.57;;;;;;;;;;12794851;27;20046;-74
2022/08/08 03:20:49;;;;;;;0.70;0.70;;;;;;;;;;12760135;27;20031;-74
2022/08/08 03:26:58;;;;;;;0.70;0.70;;;;;;;;;;12760557;27;20034;-74
2022/08/08 03:33:18;;;;;;;0.50;0.50;;;;;;;;;;12777130;27;20049;-74
2022/08/08 03:39:24;;;;;;;0.65;0.55;;;;;;;;;;12766570;27;20055;-74
2022/08/08 03:45:27;;;;;;;0.60;0.60;;;;;;;;;;12769075;27;20038;-74
2022/08/08 03:51:29;;;;;;;0.57;0.57;;;;;;;;;;12803916;27;20053;-74
2022/08/08 03:57:32;;;;;;;0.43;0.40;;;;;;;;;;12785165;27;20030;-74
2022/08/08 04:03:37;;;;;;;0.50;0.50;;;;;;;;;;12768350;27;20395;-75
2022/08/08 04:09:40;;;;;;;0.60;0.60;;;;;;;;;;12784525;27;20514;-74
2022/08/08 04:15:43;;;;;;;0.50;0.50;;;;;;;;;;12784284;27;20035;-73
2022/08/08 04:21:45;;;;;;;0.40;0.40;;;;;;;;;;12767075;27;20034;-73
2022/08/08 04:27:47;;;;;;;0.50;0.50;;;;;;;;;;12783792;27;20038;-73
2022/08/08 04:33:50;;;;;;;0.50;0.50;;;;;;;;;;12785280;27;20038;-74
2022/08/08 04:39:52;;;;;;;0.93;0.40;;;;;;;;;;12783384;27;20503;-74
2022/08/08 04:45:55;;;;;;;0.60;0.60;;;;;;;;;;12782802;27;20026;-74
2022/08/08 04:51:57;;;;;;;0.50;0.50;;;;;;;;;;12765220;27;20046;-73
2022/08/08 04:58:00;;;;;;;0.82;0.35;;;;;;;;;;12782635;27;20030;-73
2022/08/08 05:04:02;;;;;;;2.17;0.60;;;;;;;;;;12782194;27;20027;-74
2022/08/08 05:10:08;;;;;;;0.50;0.40;;;;;;;;;;12781471;27;20053;-74
2022/08/08 05:16:10;;;;;;;1.08;0.50;;;;;;;;;;12764319;27;20422;-74
2022/08/08 05:22:12;;;;;;;;;;;;;;;;;;12781417;27;20053;-74
2022/08/08 05:28:18;;;;;;;0.52;0.52;;;;;;;;;;12764212;27;19907;-74
2022/08/08 05:34:19;;;;;;;;;;;;;;;;;;12781093;27;20499;-73
2022/08/08 05:40:21;;;;;;;0.40;0.40;;;;;;;;;;12780425;27;20291;-73
2022/08/08 05:46:25;;;;;;;0.57;0.50;;;;;;;;;;12798630;27;20395;-77
2022/08/08 05:52:27;;;;;;;0.50;0.50;;;;;;;;;;12798217;27;20514;-73
2022/08/08 05:58:31;;;;;;;1.00;0.75;;;;;;;;;;12779132;27;20043;-74
2022/08/08 06:04:33;;;;;;;1.63;0.80;;;;;;;;;;12762022;27;20043;-73
2022/08/08 06:10:38;;;;;;;0.77;0.77;;;;;;;;;;12761753;27;20092;-73
2022/08/08 06:16:42;;;;;;;1.00;0.90;;;;;;;;;;12761869;27;20026;-73
2022/08/08 06:22:52;;;;;;;0.90;0.85;;;;;;;;;;12778516;27;20034;-73
2022/08/08 06:29:04;;;;;;;0.82;0.82;;;;;;;;;;12778155;27;20380;-73
2022/08/08 06:35:09;;;;;;;1.00;1.00;;;;;;;;;;12795237;27;20046;-74
2022/08/08 06:41:16;;;;;;;1.10;1.08;;;;;;;;;;12778306;27;20411;-73
2022/08/08 06:47:21;;;;;;;1.95;1.40;;;;;;;;;;12763668;27;20031;-74
2022/08/08 06:53:24;;;;;;;1.30;1.17;;;;;;;;;;12742243;27;20047;-74
2022/08/08 06:59:31;;;;;;;1.65;1.55;;;;;;;;;;12759526;27;20023;-74
2022/08/08 07:05:38;;;;;;;1.50;1.40;;;;;;;;;;12753063;27;20395;-75
2022/08/08 07:11:42;;;;;;;2.00;1.90;;;;;;;;;;12778431;27;20427;-75
2022/08/08 07:17:48;;;;;;;1.70;1.60;;;;;;;;;;12755430;27;20037;-74
2022/08/08 07:23:59;;;;;;;2.20;2.05;;;;;;;;;;12761356;27;20395;-75
2022/08/08 07:30:01;;;;;;;2.60;1.90;;;;;;;;;;12757429;27;20035;-75
2022/08/08 07:36:07;;;;;;;2.13;1.90;;;;;;;;;;12766233;27;20057;-73
2022/08/08 07:42:12;;;;;;;3.10;2.10;;;;;;;;;;12735123;27;20511;-74
2022/08/08 07:48:15;;;;;;;2.40;1.60;;;;;;;;;;12717365;27;20030;-76
2022/08/08 07:54:23;;;;;;;1.25;1.20;;;;;;;;;;12734404;27;20043;-74
2022/08/08 08:00:32;;;;;;;1.75;1.65;;;;;;;;;;12733689;27;20039;-75
2022/08/08 08:06:46;;;;;;;1.95;1.85;;;;;;;;;;12732775;27;20031;-75
2022/08/08 08:12:52;;;;;;;1.45;1.35;;;;;;;;;;12733020;27;20051;-75
2022/08/08 08:19:03;;;;;;;2.55;2.10;;;;;;;;;;12714957;27;20031;-75
2022/08/08 08:25:09;;;;;;;1.92;1.63;;;;;;;;;;12731733;27;20031;-74
2022/08/08 08:31:14;;;;;;;1.95;1.73;;;;;;;;;;12730939;27;20035;-75
2022/08/08 08:37:16;;;;;;;1.80;1.70;;;;;;;;;;12731942;27;20027;-75
2022/08/08 08:43:20;;;;;;;1.52;1.35;;;;;;;;;;12715329;27;20455;-74
2022/08/08 08:49:22;;;;;;;2.58;2.20;;;;;;;;;;12730352;27;20031;-74
2022/08/08 08:55:26;;;;;;;2.13;1.98;;;;;;;;;;12713514;27;20476;-75
2022/08/08 09:01:31;;;;;;;2.33;2.13;;;;;;;;;;12729748;27;20031;-74
2022/08/08 09:07:36;;;;;;;2.83;2.30;;;;;;;;;;12729838;27;20034;-75
2022/08/08 09:13:38;;;;;;;2.50;2.30;;;;;;;;;;12730157;27;20415;-75
2022/08/08 09:19:41;;;;;;;2.90;2.70;;;;;;;;;;12729265;27;20038;-75
2022/08/08 09:25:46;;;;;;;2.50;2.30;;;;;;;;;;12748213;27;20031;-75
2022/08/08 09:31:52;;;;;;;2.20;2.10;;;;;;;;;;12730372;27;20039;-74
2022/08/08 09:37:56;;;;;;;1.92;1.83;;;;;;;;;;12732664;27;20042;-74
2022/08/08 09:44:18;;;;;;;2.58;2.22;;;;;;;;;;12740217;27;20038;-75
2022/08/08 09:50:29;;;;;;;2.60;2.40;;;;;;;;;;12748187;27;20035;-73
2022/08/08 09:56:31;;;;;;;;;;;;;;;;;;12741507;27;20027;-73
2022/08/08 10:02:37;;;;;;;1.85;1.75;;;;;;;;;;12784478;27;19907;-74
2022/08/08 10:08:44;;;;;;;2.78;2.58;;;;;;;;;;12729341;27;20046;-74
2022/08/08 10:14:46;;;;;;;2.60;2.40;;;;;;;;;;12728894;27;20391;-73
2022/08/08 10:20:50;;;;;;;2.90;2.70;;;;;;;;;;12746181;27;20034;-75
2022/08/08 10:26:52;;;;;;;3.00;2.80;;;;;;;;;;12710808;27;20464;-75
2022/08/08 10:32:55;;;;;;;3.17;2.47;;;;;;;;;;12727041;27;20031;-75
2022/08/08 10:38:58;;;;;;;3.47;3.15;;;;;;;;;;12744945;28;20047;-74
2022/08/08 10:45:00;;;;;;;2.80;2.60;;;;;;;;;;12745829;27;20035;-74
2022/08/08 10:51:12;;;;;;;2.50;2.25;;;;;;;;;;12755257;27;20031;-73
2022/08/08 10:57:16;;;;;;;3.38;2.10;;;;;;;;;;12736749;27;20480;-74
2022/08/08 11:03:18;;;;;;;2.60;2.45;;;;;;;;;;12736870;27;20039;-74
2022/08/08 11:09:19;;;;;;;2.13;2.03;;;;;;;;;;12755105;27;20038;-73
2022/08/08 11:15:25;;;;;;;2.40;2.30;;;;;;;;;;12736258;27;20027;-74
2022/08/08 11:21:40;;;;;;;2.42;1.98;;;;;;;;;;12718896;27;20038;-75
2022/08/08 11:27:42;;;;;;;2.90;2.55;;;;;;;;;;12735425;27;20031;-75
2022/08/08 11:33:51;;;;;;;2.63;2.42;;;;;;;;;;12753578;27;20051;-76
2022/08/08 11:39:53;;;;;;;2.38;2.17;;;;;;;;;;12753363;27;20055;-75
2022/08/08 11:45:55;;;;;;;2.30;2.20;;;;;;;;;;12734681;27;20473;-74
2022/08/08 11:51:57;;;;;;;1.70;1.60;;;;;;;;;;12734574;27;20041;-74
2022/08/08 11:58:07;;;;;;;2.83;2.45;;;;;;;;;;12751461;27;20046;-74
2022/08/08 12:04:09;;;;;;;2.67;2.47;;;;;;;;;;12734017;27;20042;-75
2022/08/08 12:10:18;;;;;;;3.88;2.15;;;;;;;;;;12733844;27;20058;-73
2022/08/08 12:16:20;;;;;;;2.60;2.40;;;;;;;;;;12751574;27;20050;-74
2022/08/08 12:22:22;;;;;;;2.78;2.50;;;;;;;;;;12732939;27;20039;-75
2022/08/08 12:28:23;;;;;;;2.38;2.03;;;;;;;;;;12750999;27;20089;-75
2022/08/08 12:34:35;;;;;;;3.08;1.88;;;;;;;;;;12732214;27;20058;-74
2022/08/08 12:40:37;;;;;;;1.80;1.70;;;;;;;;;;12749563;27;20054;-73
2022/08/08 12:46:39;;;;;;;1.90;1.80;;;;;;;;;;12750322;27;20023;-74
2022/08/08 12:52:41;;;;;;;1.98;1.88;;;;;;;;;;12749680;27;20050;-74
2022/08/08 12:58:44;;;;;;;1.88;1.77;;;;;;;;;;12749541;27;20031;-74
2022/08/08 13:04:49;;;;;;;2.30;2.10;;;;;;;;;;12749136;27;20031;-74
2022/08/08 13:10:56;;;;;;;2.20;2.05;;;;;;;;;;12745671;27;20051;-73
2022/08/08 13:16:58;;;;;;;2.00;1.90;;;;;;;;;;12730149;27;20035;-74
2022/08/08 13:23:00;;;;;;;2.40;2.03;;;;;;;;;;12748260;27;20035;-74
2022/08/08 13:29:10;;;;;;;2.00;1.90;;;;;;;;;;12746649;27;20031;-74
2022/08/08 13:35:12;;;;;;;1.90;1.80;;;;;;;;;;12747748;27;20039;-74
2022/08/08 13:41:14;;;;;;;1.70;1.60;;;;;;;;;;12746231;27;20415;-74
2022/08/08 13:47:16;;;;;;;1.73;1.63;;;;;;;;;;12746146;27;20027;-74
2022/08/08 13:53:26;;;;;;;2.20;2.00;;;;;;;;;;12728483;27;20039;-73
2022/08/08 13:59:29;;;;;;;2.47;2.27;;;;;;;;;;12757022;27;20035;-74
2022/08/08 14:05:35;;;;;;;2.22;2.03;;;;;;;;;;12754419;27;20031;-74
2022/08/08 14:11:36;;;;;;;2.10;2.00;;;;;;;;;;12747116;27;20058;-74
2022/08/08 14:17:38;;;;;;;1.83;1.73;;;;;;;;;;12745941;27;20034;-74
2022/08/08 14:23:41;;;;;;;2.42;1.77;;;;;;;;;;12744913;27;20030;-74
2022/08/08 14:30:00;;;;;;;1.98;1.70;;;;;;;;;;12744283;27;20050;-74
2022/08/08 14:36:03;;;;;;;1.83;1.73;;;;;;;;;;12744931;27;20035;-74
2022/08/08 14:42:05;;;;;;;3.03;2.83;;;;;;;;;;12745710;27;20067;-74
2022/08/08 14:48:09;;;;;;;2.13;1.92;;;;;;;;;;12745969;27;20056;-74
2022/08/08 14:54:11;;;;;;;2.13;2.03;;;;;;;;;;12743427;28;20046;-75
2022/08/08 15:00:13;;;;;;;1.95;1.48;;;;;;;;;;12744939;28;20027;-75
2022/08/08 15:06:15;;;;;;;2.15;2.05;;;;;;;;;;12743274;28;20032;-75
2022/08/08 15:12:17;;;;;;;1.98;1.85;;;;;;;;;;12726191;28;20046;-75
2022/08/08 15:18:18;;;;;;;1.80;1.70;;;;;;;;;;12744122;27;20058;-75
2022/08/08 15:24:20;;;;;;;2.10;1.90;;;;;;;;;;12743031;28;20038;-74
2022/08/08 15:30:22;;;;;;;1.85;1.75;;;;;;;;;;12743880;28;20046;-74
2022/08/08 15:36:42;;;;;;;2.17;2.05;;;;;;;;;;12761046;27;20042;-75
2022/08/08 15:42:45;;;;;;;2.70;2.47;;;;;;;;;;12752470;27;20510;-75
2022/08/08 15:48:47;;;;;;;1.85;1.70;;;;;;;;;;12752830;27;20053;-73
2022/08/08 15:54:49;;;;;;;1.92;1.75;;;;;;;;;;12733822;27;20046;-75
2022/08/08 16:00:51;;;;;;;2.08;1.80;;;;;;;;;;12751047;27;20498;-74
2022/08/08 16:06:53;;;;;;;2.38;1.58;;;;;;;;;;12733533;27;20057;-74
2022/08/08 16:12:55;;;;;;;2.75;1.60;;;;;;;;;;12752826;27;20054;-75
2022/08/08 16:18:57;;;;;;;1.50;1.35;;;;;;;;;;12749898;27;20035;-73
2022/08/08 16:24:59;;;;;;;1.70;1.60;;;;;;;;;;12750800;27;20038;-73
2022/08/08 16:31:01;;;;;;;1.38;1.27;;;;;;;;;;12749371;27;20046;-73
2022/08/08 16:37:03;;;;;;;1.52;1.42;;;;;;;;;;12731778;27;20131;-73
2022/08/08 16:43:05;;;;;;;1.27;1.27;;;;;;;;;;12748847;27;20058;-73
2022/08/08 16:49:07;;;;;;;1.70;1.60;;;;;;;;;;12748669;27;20042;-74
2022/08/08 16:55:09;;;;;;;1.42;1.33;;;;;;;;;;12749162;27;20508;-74
2022/08/08 17:01:12;;;;;;;1.27;1.27;;;;;;;;;;12747868;27;20077;-74
2022/08/08 17:07:14;;;;;;;1.50;1.40;;;;;;;;;;12747921;27;20038;-73
2022/08/08 17:13:15;;;;;;;1.67;1.58;;;;;;;;;;12748063;27;20039;-74
2022/08/08 17:19:17;;;;;;;1.63;1.27;;;;;;;;;;12729990;27;20035;-74
2022/08/08 17:25:19;;;;;;;2.00;1.63;;;;;;;;;;12746648;27;20042;-74
2022/08/08 17:31:21;;;;;;;1.95;1.85;;;;;;;;;;12747675;27;20047;-74
2022/08/08 17:37:23;;;;;;;1.75;1.45;;;;;;;;;;12747502;27;20295;-74
2022/08/08 17:43:24;;;;;;;1.80;1.70;;;;;;;;;;12747801;27;20059;-75
2022/08/08 17:49:26;;;;;;;1.60;1.50;;;;;;;;;;12749848;27;20027;-74
2022/08/08 17:55:28;;;;;;;1.48;1.38;;;;;;;;;;12749299;27;20512;-74
2022/08/08 18:01:49;;;;;;;1.80;1.70;;;;;;;;;;12744900;27;20035;-74
2022/08/08 18:07:54;;;;;;;1.73;1.63;;;;;;;;;;12745133;27;20054;-75
2022/08/08 18:13:55;;;;;;;1.63;1.52;;;;;;;;;;12744558;27;20039;-74
2022/08/08 18:19:58;;;;;;;1.67;1.58;;;;;;;;;;12745820;27;20035;-74
2022/08/08 18:26:00;;;;;;;1.67;1.58;;;;;;;;;;12744473;27;20043;-74
2022/08/08 18:32:06;;;;;;;2.05;1.75;;;;;;;;;;12744458;27;20035;-74
2022/08/08 18:38:08;;;;;;;2.22;2.10;;;;;;;;;;12744742;27;20054;-73
2022/08/08 18:44:11;;;;;;;2.58;2.38;;;;;;;;;;12743779;28;20039;-74
2022/08/08 18:50:12;;;;;;;2.15;2.05;;;;;;;;;;12742647;28;20032;-74
2022/08/08 18:56:22;;;;;;;2.38;2.17;;;;;;;;;;12741227;28;20035;-75
2022/08/08 19:02:24;;;;;;;2.40;2.20;;;;;;;;;;12724056;28;20061;-74
2022/08/08 19:08:25;;;;;;;2.00;1.88;;;;;;;;;;12747719;27;20065;-73
2022/08/08 19:14:27;;;;;;;2.53;2.33;;;;;;;;;;12753066;27;20047;-75
2022/08/08 19:20:29;;;;;;;2.65;2.47;;;;;;;;;;12754278;27;20041;-75
2022/08/08 19:26:31;;;;;;;2.78;2.58;;;;;;;;;;12752339;27;20031;-75
2022/08/08 19:32:33;;;;;;;3.08;2.13;;;;;;;;;;12753479;27;20043;-73
2022/08/08 19:38:35;;;;;;;2.40;2.30;;;;;;;;;;12752503;27;20504;-75
2022/08/08 19:44:37;;;;;;;2.63;2.35;;;;;;;;;;12734799;27;20035;-75
2022/08/08 19:50:39;;;;;;;3.05;2.40;;;;;;;;;;12734840;27;20047;-74
2022/08/08 19:56:41;;;;;;;2.80;2.60;;;;;;;;;;12751144;27;20031;-74
2022/08/08 20:02:45;;;;;;;3.83;3.00;;;;;;;;;;12733734;27;20031;-74
2022/08/08 20:08:46;;;;;;;3.08;2.88;;;;;;;;;;12751988;27;20027;-74
2022/08/08 20:14:48;;;;;;;2.72;2.60;;;;;;;;;;12751604;27;20051;-74
2022/08/08 20:20:50;;;;;;;2.25;2.15;;;;;;;;;;12750864;27;20042;-73
2022/08/08 20:26:52;;;;;;;2.10;2.00;;;;;;;;;;12749935;27;20031;-74
2022/08/08 20:32:54;;;;;;;2.13;1.80;;;;;;;;;;12749527;27;20035;-73
2022/08/08 20:38:56;;;;;;;1.80;1.70;;;;;;;;;;12749533;27;20511;-73
2022/08/08 20:44:58;;;;;;;2.20;2.00;;;;;;;;;;12750855;27;20027;-74
2022/08/08 20:51:00;;;;;;;2.63;2.42;;;;;;;;;;12750067;27;20050;-74
2022/08/08 20:57:01;;;;;;;2.15;2.03;;;;;;;;;;12749952;27;20034;-74
2022/08/08 21:03:03;;;;;;;2.17;2.03;;;;;;;;;;12748008;27;20388;-74
2022/08/08 21:09:05;;;;;;;1.40;1.30;;;;;;;;;;12747618;27;20026;-75
2022/08/08 21:15:08;;;;;;;1.50;1.40;;;;;;;;;;12748744;27;20046;-74
2022/08/08 21:21:14;;;;;;;2.10;1.80;;;;;;;;;;12747314;27;20042;-74
2022/08/08 21:27:16;;;;;;;1.95;1.85;;;;;;;;;;12747088;27;20519;-74
2022/08/08 21:33:18;;;;;;;1.70;1.60;;;;;;;;;;12745851;27;20035;-74
2022/08/08 21:39:22;;;;;;;1.70;1.60;;;;;;;;;;12746399;27;20062;-74
2022/08/08 21:45:24;;;;;;;3.38;1.90;;;;;;;;;;12748778;27;20502;-74
2022/08/08 21:51:27;;;;;;;1.77;1.67;;;;;;;;;;12747805;27;20480;-74
2022/08/08 21:57:29;;;;;;;2.00;1.85;;;;;;;;;;12745608;27;20420;-73
2022/08/08 22:03:31;;;;;;;1.83;1.73;;;;;;;;;;12746377;27;20042;-74
2022/08/08 22:09:33;;;;;;;1.77;1.58;;;;;;;;;;12745875;27;20479;-74
2022/08/08 22:15:35;;;;;;;1.60;1.50;;;;;;;;;;12746017;27;20039;-74
2022/08/08 22:21:37;;;;;;;1.70;1.60;;;;;;;;;;12746076;27;20035;-74
2022/08/08 22:27:38;;;;;;;2.10;1.52;;;;;;;;;;12744529;27;20031;-74
2022/08/08 22:33:42;;;;;;;1.90;1.80;;;;;;;;;;12744246;27;20047;-74
2022/08/08 22:39:43;;;;;;;2.05;1.80;;;;;;;;;;12745387;27;20510;-73
2022/08/08 22:45:45;;;;;;;1.50;1.35;;;;;;;;;;12743883;27;20038;-74
2022/08/08 22:51:47;;;;;;;1.67;1.58;;;;;;;;;;12744982;27;20043;-75
2022/08/08 22:57:49;;;;;;;1.00;1.00;;;;;;;;;;12744038;28;20031;-74
2022/08/08 23:03:51;;;;;;;1.73;1.63;;;;;;;;;;12744939;27;20042;-74
2022/08/08 23:09:53;;;;;;;1.83;1.70;;;;;;;;;;12745226;28;20031;-75
2022/08/08 23:15:54;;;;;;;1.60;1.50;;;;;;;;;;12744471;27;20047;-75
2022/08/08 23:21:56;;;;;;;1.58;1.20;;;;;;;;;;12744227;27;20028;-75
2022/08/08 23:27:58;;;;;;;1.40;1.30;;;;;;;;;;12744228;27;20034;-73
2022/08/08 23:33:59;;;;;;;1.52;1.42;;;;;;;;;;12743800;28;20047;-73
2022/08/08 23:40:01;;;;;;;1.40;1.30;;;;;;;;;;12743056;28;20492;-73
2022/08/08 23:46:03;;;;;;;2.13;1.23;;;;;;;;;;12743081;28;20042;-74
2022/08/08 23:52:05;;;;;;;1.27;1.17;;;;;;;;;;12742292;27;20042;-74
2022/08/08 23:58:07;;;;;;;1.25;1.15;;;;;;;;;;12749879;27;20472;-74
